createdAt,value
2022-10-19T00:01:15.003Z,2.05
2022-10-19T00:03:41.914Z,1.90
2022-10-19T00:06:26.474Z,2.33
2022-10-19T00:09:06.360Z,2.53
2022-10-19T00:11:34.799Z,2.38
2022-10-19T00:14:01.691Z,2.35
2022-10-19T00:16:30.916Z,2.60
2022-10-19T00:18:58.264Z,2.83
2022-10-19T00:21:25.193Z,3.03
2022-10-19T00:23:51.777Z,2.55
2022-10-19T00:26:18.635Z,3.20
2022-10-19T00:28:45.560Z,2.97
2022-10-19T00:31:15.052Z,2.33
2022-10-19T00:33:42.680Z,2.80
2022-10-19T00:36:18.463Z,2.47
2022-10-19T00:38:45.380Z,2.30
2022-10-19T00:41:12.400Z,3.30
2022-10-19T00:44:01.583Z,2.53
2022-10-19T00:46:30.772Z,1.83
2022-10-19T00:49:12.913Z,2.45
2022-10-19T00:51:45.808Z,3.17
2022-10-19T00:54:12.871Z,2.22
2022-10-19T00:56:41.503Z,2.38
2022-10-19T00:59:08.767Z,2.50
2022-10-19T01:01:35.531Z,2.72
2022-10-19T01:04:03.253Z,3.35
2022-10-19T01:06:30.175Z,2.55
2022-10-19T01:08:56.739Z,2.28
2022-10-19T01:12:01.051Z,2.25
2022-10-19T01:14:36.071Z,2.22
2022-10-19T01:17:27.298Z,2.65
2022-10-19T01:20:31.386Z,2.35
2022-10-19T01:23:13.728Z,1.95
2022-10-19T01:26:04.259Z,2.20
2022-10-19T01:28:45.017Z,1.77
2022-10-19T01:31:17.940Z,2.00
2022-10-19T01:36:43.427Z,1.40
2022-10-19T01:39:16.009Z,1.70
2022-10-19T01:41:50.903Z,1.50
2022-10-19T01:44:29.539Z,2.33
2022-10-19T01:46:59.346Z,1.70
2022-10-19T01:49:36.994Z,1.67
2022-10-19T01:52:05.684Z,1.67
2022-10-19T01:54:38.563Z,1.17
2022-10-19T01:57:07.796Z,1.48
2022-10-19T01:59:34.793Z,1.33
2022-10-19T02:02:03.791Z,1.42
2022-10-19T02:04:31.297Z,1.60
2022-10-19T02:06:58.410Z,1.50
2022-10-19T02:09:25.040Z,1.38
2022-10-19T02:11:59.155Z,1.70
2022-10-19T02:14:29.540Z,1.45
2022-10-19T02:17:06.801Z,3.28
2022-10-19T02:19:34.830Z,1.20
2022-10-19T02:22:01.628Z,1.20
2022-10-19T02:24:28.324Z,1.48
2022-10-19T02:26:55.468Z,1.20
2022-10-19T02:29:22.236Z,1.17
2022-10-19T02:31:49.284Z,1.20
2022-10-19T02:34:15.889Z,1.20
2022-10-19T02:36:42.452Z,1.80
2022-10-19T02:39:09.316Z,1.33
2022-10-19T02:42:00.089Z,0.95
2022-10-19T02:44:30.969Z,1.30
2022-10-19T02:47:10.139Z,1.30
2022-10-19T02:49:37.099Z,0.90
2022-10-19T02:52:08.948Z,1.10
2022-10-19T02:54:35.857Z,1.40
2022-10-19T02:57:05.507Z,1.40
2022-10-19T02:59:32.071Z,1.20
2022-10-19T03:01:58.632Z,1.48
2022-10-19T03:04:25.206Z,1.48
2022-10-19T03:06:51.772Z,1.20
2022-10-19T03:09:18.632Z,1.10
2022-10-19T03:11:45.204Z,1.80
2022-10-19T03:14:11.797Z,1.20
2022-10-19T03:16:38.324Z,1.23
2022-10-19T03:19:04.872Z,1.20
2022-10-19T03:21:31.431Z,1.02
2022-10-19T03:24:00.697Z,1.10
2022-10-19T03:26:27.271Z,1.60
2022-10-19T03:28:53.885Z,1.50
2022-10-19T03:31:20.555Z,1.48
2022-10-19T03:33:47.140Z,1.55
2022-10-19T03:36:23.364Z,1.38
2022-10-19T03:38:54.591Z,1.20
2022-10-19T03:41:23.313Z,1.30
2022-10-19T03:43:50.038Z,1.55
2022-10-19T03:46:17.157Z,1.48
2022-10-19T03:48:44.155Z,1.40
2022-10-19T03:51:16.040Z,1.00
2022-10-19T03:53:43.195Z,1.20
2022-10-19T03:56:13.312Z,1.42
2022-10-19T03:58:41.367Z,1.30
2022-10-19T04:01:17.020Z,1.08
2022-10-19T04:03:43.985Z,1.10
2022-10-19T04:06:18.253Z,1.20
2022-10-19T04:08:49.736Z,1.42
2022-10-19T04:11:17.503Z,1.13
2022-10-19T04:13:44.087Z,0.98
2022-10-19T04:16:13.864Z,1.45
2022-10-19T04:18:40.460Z,0.90
2022-10-19T04:21:07.430Z,1.00
2022-10-19T04:23:35.919Z,1.10
2022-10-19T04:28:30.405Z,1.50
2022-10-19T04:30:57.207Z,1.85
2022-10-19T04:33:23.880Z,1.20
2022-10-19T04:35:50.448Z,1.58
2022-10-19T04:38:17.006Z,1.48
2022-10-19T04:40:43.524Z,1.67
2022-10-19T04:43:10.099Z,2.00
2022-10-19T04:45:36.654Z,2.05
2022-10-19T04:48:03.492Z,1.17
2022-10-19T04:50:30.029Z,2.58
2022-10-19T04:52:56.591Z,2.60
2022-10-19T04:55:23.174Z,2.17
2022-10-19T04:57:49.760Z,1.30
2022-10-19T05:00:16.521Z,1.27
2022-10-19T05:02:44.821Z,1.17
2022-10-19T05:05:12.953Z,1.20
2022-10-19T05:07:39.608Z,1.23
2022-10-19T05:10:07.324Z,1.38
2022-10-19T05:12:35.907Z,1.37
2022-10-19T05:17:32.973Z,1.85
2022-10-19T05:19:59.888Z,0.88
2022-10-19T05:22:26.535Z,1.30
2022-10-19T05:24:55.877Z,1.10
2022-10-19T05:27:24.727Z,1.10
2022-10-19T05:29:51.339Z,1.00
2022-10-19T05:32:17.891Z,1.20
2022-10-19T05:34:44.442Z,1.00
2022-10-19T05:37:11.066Z,0.90
2022-10-19T05:39:37.650Z,1.58
2022-10-19T05:42:04.368Z,0.90
2022-10-19T05:44:30.995Z,1.00
2022-10-19T05:47:03.929Z,1.13
2022-10-19T05:49:30.594Z,1.17
2022-10-19T05:51:57.192Z,1.08
2022-10-19T05:54:26.335Z,1.20
2022-10-19T05:56:55.003Z,1.05
2022-10-19T05:59:22.151Z,0.90
2022-10-19T06:01:48.839Z,1.00
2022-10-19T06:06:47.356Z,1.10
2022-10-19T06:09:13.991Z,1.13
2022-10-19T06:11:42.321Z,1.00
2022-10-19T06:14:12.920Z,0.95
2022-10-19T06:16:39.644Z,1.10
2022-10-19T06:19:06.591Z,1.33
2022-10-19T06:21:34.034Z,1.25
2022-10-19T06:24:02.956Z,1.30
2022-10-19T06:26:30.938Z,1.23
2022-10-19T06:29:00.546Z,2.20
2022-10-19T06:31:28.700Z,1.67
2022-10-19T06:33:56.030Z,1.25
2022-10-19T06:36:24.708Z,2.90
2022-10-19T06:41:17.790Z,1.20
2022-10-19T06:43:44.603Z,1.40
2022-10-19T06:46:15.652Z,1.42
2022-10-19T06:48:42.319Z,1.00
2022-10-19T06:51:09.140Z,1.75
2022-10-19T06:53:36.629Z,1.10
2022-10-19T06:56:05.417Z,1.30
2022-10-19T06:58:35.640Z,2.55
2022-10-19T07:01:02.594Z,1.10
2022-10-19T07:03:31.024Z,1.52
2022-10-19T07:06:02.344Z,1.80
2022-10-19T07:08:31.207Z,2.05
2022-10-19T07:11:01.404Z,2.55
2022-10-19T07:13:29.323Z,2.50
2022-10-19T07:15:59.796Z,1.85
2022-10-19T07:18:27.268Z,2.25
2022-10-19T07:20:57.755Z,2.15
2022-10-19T07:23:26.159Z,2.33
2022-10-19T07:25:53.975Z,1.83
2022-10-19T07:28:21.701Z,1.50
2022-10-19T07:30:48.356Z,1.57
2022-10-19T07:33:15.011Z,1.35
2022-10-19T07:35:41.658Z,1.00
2022-10-19T07:38:08.667Z,1.10
2022-10-19T07:40:35.521Z,1.20
2022-10-19T07:43:02.264Z,1.67
2022-10-19T07:45:30.002Z,1.50
2022-10-19T07:47:56.687Z,1.33
2022-10-19T07:50:24.736Z,1.40
2022-10-19T07:52:54.555Z,1.30
2022-10-19T07:55:21.255Z,1.50
2022-10-19T07:57:48.706Z,1.48
2022-10-19T08:00:16.736Z,1.40
2022-10-19T08:02:59.705Z,1.50
2022-10-19T08:05:33.283Z,1.20
2022-10-19T08:07:59.908Z,1.60
2022-10-19T08:10:26.493Z,1.50
2022-10-19T08:12:53.172Z,1.45
2022-10-19T08:15:19.735Z,1.30
2022-10-19T08:17:46.370Z,2.05
2022-10-19T08:20:12.994Z,1.30
2022-10-19T08:22:39.837Z,1.35
2022-10-19T08:25:06.599Z,1.88
2022-10-19T08:27:33.225Z,1.55
2022-10-19T08:29:59.859Z,1.20
2022-10-19T08:32:26.424Z,1.30
2022-10-19T08:34:52.974Z,1.55
2022-10-19T08:37:32.556Z,1.65
2022-10-19T08:40:06.979Z,1.40
2022-10-19T08:42:48.757Z,1.42
2022-10-19T08:45:36.762Z,1.60
2022-10-19T08:48:05.802Z,1.30
2022-10-19T08:50:38.870Z,1.42
2022-10-19T08:53:08.334Z,1.40
2022-10-19T08:56:03.758Z,1.20
2022-10-19T08:58:36.755Z,1.92
2022-10-19T09:01:26.475Z,2.00
2022-10-19T09:04:20.739Z,1.58
2022-10-19T09:07:17.860Z,2.58
2022-10-19T09:09:49.401Z,2.00
2022-10-19T09:12:19.016Z,1.98
2022-10-19T09:14:56.536Z,1.55
2022-10-19T09:17:25.244Z,1.75
2022-10-19T09:19:52.585Z,1.50
2022-10-19T09:22:27.225Z,1.60
2022-10-19T09:25:14.123Z,1.30
2022-10-19T09:27:41.760Z,1.55
2022-10-19T09:30:22.650Z,1.10
2022-10-19T09:32:53.653Z,1.38
2022-10-19T09:35:47.049Z,1.60
2022-10-19T09:38:16.824Z,1.20
2022-10-19T09:40:44.047Z,1.25
2022-10-19T09:43:21.544Z,1.25
2022-10-19T09:45:55.620Z,1.30
2022-10-19T09:48:32.545Z,1.90
2022-10-19T09:51:01.209Z,1.90
2022-10-19T09:53:28.570Z,1.85
2022-10-19T09:56:06.931Z,1.90
2022-10-19T09:58:35.009Z,1.83
2022-10-19T10:01:02.713Z,1.77
2022-10-19T10:03:43.571Z,1.27
2022-10-19T10:06:17.768Z,2.05
2022-10-19T10:08:50.424Z,2.90
2022-10-19T10:11:25.342Z,3.75
2022-10-19T10:13:54.281Z,4.03
2022-10-19T10:16:24.652Z,5.60
2022-10-19T10:18:54.867Z,4.70
2022-10-19T10:21:25.832Z,3.95
2022-10-19T10:24:01.033Z,4.30
2022-10-19T10:26:27.937Z,3.47
2022-10-19T10:28:57.855Z,4.93
2022-10-19T10:31:29.217Z,4.75
2022-10-19T10:36:25.129Z,5.82
2022-10-19T10:38:54.116Z,4.70
2022-10-19T10:41:23.820Z,5.95
2022-10-19T10:44:00.757Z,6.43
2022-10-19T10:46:41.487Z,6.15
2022-10-19T10:49:21.103Z,5.90
2022-10-19T10:51:54.730Z,6.18
2022-10-19T10:54:26.619Z,5.72
2022-10-19T10:57:09.496Z,4.72
2022-10-19T10:59:45.474Z,3.28
2022-10-19T11:02:55.842Z,3.58
2022-10-19T11:05:29.424Z,2.33
2022-10-19T11:08:01.809Z,1.80
2022-10-19T11:10:33.327Z,2.00
2022-10-19T11:13:44.257Z,2.28
2022-10-19T11:16:17.185Z,1.90
2022-10-19T11:18:47.676Z,1.40
2022-10-19T11:21:24.580Z,1.17
2022-10-19T11:24:00.364Z,2.00
2022-10-19T11:26:36.255Z,1.33
2022-10-19T11:29:27.976Z,1.77
2022-10-19T11:31:55.674Z,2.17
2022-10-19T11:34:37.414Z,2.00
2022-10-19T11:37:28.451Z,1.83
2022-10-19T11:40:08.983Z,1.42
2022-10-19T11:42:55.900Z,1.58
2022-10-19T11:45:32.324Z,1.70
2022-10-19T11:48:04.789Z,1.70
2022-10-19T11:50:53.860Z,1.40
2022-10-19T11:53:26.296Z,1.85
2022-10-19T11:56:19.738Z,1.70
2022-10-19T11:59:05.559Z,2.13
2022-10-19T12:01:42.578Z,1.70
2022-10-19T12:04:19.456Z,2.25
2022-10-19T12:07:09.640Z,1.70
2022-10-19T12:09:44.369Z,1.95
2022-10-19T12:12:40.605Z,2.05
2022-10-19T12:15:30.566Z,2.00
2022-10-19T12:18:10.416Z,1.33
2022-10-19T12:20:58.212Z,1.45
2022-10-19T12:23:43.019Z,2.05
2022-10-19T12:26:11.839Z,1.42
2022-10-19T12:28:41.741Z,1.65
2022-10-19T12:31:09.699Z,1.48
2022-10-19T12:33:41.166Z,1.80
2022-10-19T12:36:25.835Z,2.30
2022-10-19T12:39:00.135Z,1.88
2022-10-19T12:41:33.897Z,1.73
2022-10-19T12:44:22.307Z,1.30
2022-10-19T12:49:31.027Z,1.58
2022-10-19T12:51:59.510Z,1.38
2022-10-19T12:56:55.974Z,1.30
2022-10-19T12:59:32.678Z,1.50
2022-10-19T13:01:59.979Z,1.30
2022-10-19T13:04:28.714Z,1.38
2022-10-19T13:06:58.306Z,0.85
2022-10-19T13:09:32.842Z,1.67
2022-10-19T13:12:17.824Z,1.30
2022-10-19T13:14:48.875Z,0.90
2022-10-19T13:17:34.355Z,1.50
2022-10-19T13:20:13.230Z,1.52
2022-10-19T13:22:40.581Z,1.15
2022-10-19T13:25:16.199Z,1.20
2022-10-19T13:27:46.588Z,1.40
2022-10-19T13:30:42.255Z,1.42
2022-10-19T13:33:28.635Z,1.05
2022-10-19T13:36:02.628Z,1.30
2022-10-19T13:39:08.077Z,1.02
2022-10-19T13:41:34.608Z,1.42
2022-10-19T13:44:20.266Z,1.30
2022-10-19T13:47:16.808Z,1.10
2022-10-19T13:50:26.341Z,1.25
2022-10-19T13:52:58.887Z,1.70
2022-10-19T13:55:51.996Z,1.40
2022-10-19T13:58:21.603Z,1.60
2022-10-19T14:01:03.260Z,1.85
2022-10-19T14:03:54.637Z,1.42
2022-10-19T14:06:42.790Z,2.00
2022-10-19T14:09:18.804Z,1.60
2022-10-19T14:11:51.717Z,2.13
2022-10-19T14:14:21.451Z,1.90
2022-10-19T14:17:01.260Z,2.00
2022-10-19T14:19:42.041Z,2.25
2022-10-19T14:22:34.020Z,1.70
2022-10-19T14:25:22.462Z,1.85
2022-10-19T14:30:24.085Z,1.75
2022-10-19T14:32:50.999Z,1.92
2022-10-19T14:35:22.243Z,2.38
2022-10-19T14:37:49.667Z,1.55
2022-10-19T14:40:33.167Z,1.60
2022-10-19T14:43:01.161Z,1.40
2022-10-19T14:45:30.101Z,1.55
2022-10-19T14:48:04.615Z,1.40
2022-10-19T14:50:39.584Z,1.90
2022-10-19T14:53:32.067Z,1.55
2022-10-19T14:56:02.322Z,1.90
2022-10-19T14:58:32.058Z,1.35
2022-10-19T15:00:58.631Z,1.33
2022-10-19T15:03:29.312Z,1.50
2022-10-19T15:06:00.466Z,1.00
2022-10-19T15:08:34.672Z,1.35
2022-10-19T15:11:01.385Z,1.13
2022-10-19T15:13:40.969Z,1.30
2022-10-19T15:16:29.488Z,1.40
2022-10-19T15:18:56.183Z,1.50
2022-10-19T15:21:22.896Z,1.20
2022-10-19T15:23:51.473Z,1.30
2022-10-19T15:28:46.846Z,1.38
2022-10-19T15:31:15.338Z,1.45
2022-10-19T15:33:51.420Z,1.20
2022-10-19T15:36:19.985Z,1.60
2022-10-19T15:41:20.951Z,1.20
2022-10-19T15:43:50.329Z,1.48
2022-10-19T15:46:31.009Z,1.20
2022-10-19T15:48:59.968Z,1.35
2022-10-19T15:51:26.514Z,1.50
2022-10-19T15:53:53.940Z,1.50
2022-10-19T15:56:21.698Z,1.30
2022-10-19T15:58:52.417Z,0.93
2022-10-19T16:01:20.870Z,0.93
2022-10-19T16:06:14.612Z,1.20
2022-10-19T16:08:41.332Z,1.10
2022-10-19T16:11:15.592Z,1.02
2022-10-19T16:13:42.352Z,1.23
2022-10-19T16:16:12.733Z,1.17
2022-10-19T16:18:39.614Z,1.23
2022-10-19T16:21:06.468Z,1.20
2022-10-19T16:23:37.824Z,1.50
2022-10-19T16:26:07.852Z,1.33
2022-10-19T16:28:34.452Z,1.23
2022-10-19T16:31:01.171Z,1.10
2022-10-19T16:33:27.778Z,1.30
2022-10-19T16:35:54.365Z,1.25
2022-10-19T16:38:20.893Z,1.38
2022-10-19T16:40:47.452Z,1.30
2022-10-19T16:43:14.022Z,1.40
2022-10-19T16:45:43.933Z,1.60
2022-10-19T16:48:13.633Z,1.02
2022-10-19T16:50:40.241Z,1.35
2022-10-19T16:53:12.129Z,1.35
2022-10-19T16:55:42.653Z,1.30
2022-10-19T16:58:09.231Z,1.45
2022-10-19T17:00:36.067Z,1.33
2022-10-19T17:03:02.655Z,1.70
2022-10-19T17:05:29.221Z,1.27
2022-10-19T17:07:55.816Z,1.58
2022-10-19T17:10:22.395Z,1.50
2022-10-19T17:12:48.993Z,1.20
2022-10-19T17:15:41.488Z,1.52
2022-10-19T17:18:02.105Z,1.90
2022-10-19T17:20:28.804Z,1.85
2022-10-19T17:22:55.339Z,1.88
2022-10-19T17:25:21.875Z,1.50
2022-10-19T17:27:51.855Z,1.90
2022-10-19T17:30:18.719Z,1.77
2022-10-19T17:32:45.359Z,1.75
2022-10-19T17:35:11.930Z,2.05
2022-10-19T17:37:38.555Z,1.92
2022-10-19T17:40:05.894Z,1.73
2022-10-19T17:42:36.459Z,1.77
2022-10-19T17:45:03.279Z,2.20
2022-10-19T17:47:30.526Z,2.28
2022-10-19T17:49:57.143Z,2.28
2022-10-19T17:52:23.693Z,2.30
2022-10-19T17:55:11.081Z,2.03
2022-10-19T17:57:37.128Z,1.85
2022-10-19T18:00:05.660Z,2.50
2022-10-19T18:02:32.319Z,2.58
2022-10-19T18:04:58.885Z,2.28
2022-10-19T18:07:26.215Z,2.22
2022-10-19T18:09:52.895Z,2.50
2022-10-19T18:12:19.551Z,2.35
2022-10-19T18:14:46.072Z,3.10
2022-10-19T18:17:12.612Z,2.75
2022-10-19T18:19:39.191Z,2.97
2022-10-19T18:22:05.858Z,3.33
2022-10-19T18:24:34.669Z,3.28
2022-10-19T18:27:01.247Z,3.50
2022-10-19T18:29:27.912Z,3.97
2022-10-19T18:31:55.054Z,3.95
2022-10-19T18:34:24.639Z,3.70
2022-10-19T18:36:51.777Z,3.65
2022-10-19T18:39:18.449Z,3.90
2022-10-19T18:41:45.157Z,3.70
2022-10-19T18:44:12.986Z,4.68
2022-10-19T18:46:39.548Z,3.35
2022-10-19T18:49:08.253Z,3.83
2022-10-19T18:51:34.937Z,3.75
2022-10-19T18:54:01.580Z,3.92
2022-10-19T18:56:29.490Z,4.10
2022-10-19T18:58:56.740Z,3.70
2022-10-19T19:01:29.274Z,3.50
2022-10-19T19:03:57.704Z,4.30
2022-10-19T19:06:28.940Z,4.30
2022-10-19T19:08:59.686Z,4.43
2022-10-19T19:11:30.569Z,3.70
2022-10-19T19:14:06.177Z,3.30
2022-10-19T19:16:35.123Z,3.72
2022-10-19T19:19:02.017Z,3.30
2022-10-19T19:21:30.433Z,3.40
2022-10-19T19:23:59.312Z,3.92
2022-10-19T19:26:28.245Z,4.10
2022-10-19T19:28:54.979Z,3.70
2022-10-19T19:31:21.552Z,3.45
2022-10-19T19:33:48.591Z,3.75
2022-10-19T19:36:16.239Z,3.30
2022-10-19T19:38:43.408Z,3.33
2022-10-19T19:41:13.800Z,3.38
2022-10-19T19:43:40.975Z,3.88
2022-10-19T19:46:11.109Z,3.35
2022-10-19T19:48:37.856Z,3.42
2022-10-19T19:51:05.165Z,3.35
2022-10-19T19:53:31.731Z,3.13
2022-10-19T19:55:58.284Z,3.38
2022-10-19T19:58:24.819Z,2.97
2022-10-19T20:00:51.426Z,3.72
2022-10-19T20:03:18.042Z,3.20
2022-10-19T20:05:44.591Z,3.53
2022-10-19T20:08:11.527Z,3.30
2022-10-19T20:10:42.171Z,3.60
2022-10-19T20:13:09.036Z,3.13
2022-10-19T20:15:39.272Z,3.55
2022-10-19T20:18:06.527Z,3.20
2022-10-19T20:20:33.160Z,3.30
2022-10-19T20:22:59.690Z,3.00
2022-10-19T20:25:26.242Z,3.17
2022-10-19T20:27:52.881Z,3.42
2022-10-19T20:30:19.528Z,2.80
2022-10-19T20:32:46.203Z,2.60
2022-10-19T20:35:12.759Z,2.97
2022-10-19T20:37:39.404Z,2.95
2022-10-19T20:40:08.793Z,2.88
2022-10-19T20:42:36.046Z,3.20
2022-10-19T20:45:03.239Z,2.88
2022-10-19T20:47:29.940Z,3.00
2022-10-19T20:49:56.642Z,3.22
2022-10-19T20:52:23.291Z,2.97
2022-10-19T20:54:49.900Z,2.70
2022-10-19T20:57:16.498Z,2.72
2022-10-19T20:59:44.053Z,3.03
2022-10-19T21:02:11.232Z,3.00
2022-10-19T21:04:38.123Z,2.70
2022-10-19T21:07:05.151Z,3.20
2022-10-19T21:09:31.984Z,2.70
2022-10-19T21:11:59.018Z,3.08
2022-10-19T21:14:28.594Z,2.67
2022-10-19T21:16:59.544Z,2.45
2022-10-19T21:19:28.320Z,2.45
2022-10-19T21:21:58.414Z,2.30
2022-10-19T21:24:27.374Z,2.63
2022-10-19T21:26:54.027Z,2.65
2022-10-19T21:29:20.931Z,2.67
2022-10-19T21:31:49.463Z,2.70
2022-10-19T21:36:49.467Z,2.90
2022-10-19T21:39:16.511Z,2.40
2022-10-19T21:41:43.133Z,2.70
2022-10-19T21:44:09.713Z,2.70
2022-10-19T21:46:36.311Z,2.25
2022-10-19T21:49:02.863Z,2.35
2022-10-19T21:51:39.959Z,2.70
2022-10-19T21:54:08.449Z,2.30
2022-10-19T21:56:35.019Z,2.20
2022-10-19T21:59:01.661Z,2.08
2022-10-19T22:01:29.805Z,2.20
2022-10-19T22:03:57.294Z,2.15
2022-10-19T22:06:24.877Z,2.33
2022-10-19T22:08:51.668Z,2.47
2022-10-19T22:11:18.419Z,2.25
2022-10-19T22:13:44.995Z,2.42
2022-10-19T22:16:14.067Z,2.40
2022-10-19T22:18:40.707Z,3.28
2022-10-19T22:21:12.888Z,2.20
2022-10-19T22:23:39.676Z,2.28
2022-10-19T22:26:17.516Z,2.40
2022-10-19T22:28:44.737Z,2.78
2022-10-19T22:31:12.581Z,2.63
2022-10-19T22:33:39.770Z,2.60
2022-10-19T22:36:08.016Z,2.92
2022-10-19T22:38:36.374Z,2.10
2022-10-19T22:41:03.115Z,2.42
2022-10-19T22:43:29.681Z,2.40
2022-10-19T22:45:56.372Z,2.65
2022-10-19T22:48:22.973Z,2.90
2022-10-19T22:50:52.899Z,2.83
2022-10-19T22:53:20.437Z,2.63
2022-10-19T22:55:46.975Z,2.78
2022-10-19T22:58:13.550Z,2.95
2022-10-19T23:00:40.177Z,2.20
2022-10-19T23:03:06.797Z,2.88
2022-10-19T23:05:33.463Z,2.60
2022-10-19T23:08:00.082Z,2.67
2022-10-19T23:10:26.870Z,2.70
2022-10-19T23:12:54.072Z,2.97
2022-10-19T23:15:21.477Z,3.13
2022-10-19T23:17:48.362Z,2.80
2022-10-19T23:20:15.163Z,2.90
2022-10-19T23:22:41.780Z,2.95
2022-10-19T23:25:08.891Z,2.70
2022-10-19T23:27:35.787Z,3.28
2022-10-19T23:30:04.115Z,2.78
2022-10-19T23:32:30.769Z,3.17
2022-10-19T23:34:57.354Z,3.17
2022-10-19T23:37:23.967Z,3.53
2022-10-19T23:39:50.564Z,2.80
2022-10-19T23:42:17.267Z,3.15
2022-10-19T23:44:43.956Z,3.45
2022-10-19T23:47:10.570Z,3.45
2022-10-19T23:49:37.104Z,3.33
2022-10-19T23:52:03.854Z,3.15
2022-10-19T23:54:30.463Z,3.80
2022-10-19T23:56:57.041Z,3.70
2022-10-19T23:59:23.639Z,4.10
